createdAt,value
2022-10-09T00:01:04.166Z,10.48
2022-10-09T00:03:31.213Z,10.46
2022-10-09T00:05:58.731Z,10.44
2022-10-09T00:08:26.015Z,10.40
2022-10-09T00:10:53.143Z,10.39
2022-10-09T00:13:20.440Z,10.47
2022-10-09T00:15:47.861Z,10.53
2022-10-09T00:18:17.741Z,10.50
2022-10-09T00:20:46.792Z,10.45
2022-10-09T00:23:16.703Z,10.54
2022-10-09T00:25:54.217Z,10.47
2022-10-09T00:28:23.356Z,10.55
2022-10-09T00:30:50.701Z,10.48
2022-10-09T00:33:17.861Z,10.47
2022-10-09T00:35:44.814Z,10.45
2022-10-09T00:38:12.593Z,10.47
2022-10-09T00:40:39.694Z,10.46
2022-10-09T00:43:18.789Z,10.49
2022-10-09T00:45:54.551Z,10.48
2022-10-09T00:48:22.818Z,10.48
2022-10-09T00:50:59.466Z,10.37
2022-10-09T00:53:28.703Z,10.34
2022-10-09T00:55:56.171Z,10.33
2022-10-09T00:58:24.838Z,10.29
2022-10-09T01:00:52.392Z,10.23
2022-10-09T01:03:19.395Z,10.22
2022-10-09T01:05:55.196Z,10.25
2022-10-09T01:08:31.638Z,10.26
2022-10-09T01:11:04.264Z,10.30
2022-10-09T01:14:04.538Z,10.15
2022-10-09T01:16:43.170Z,10.28
2022-10-09T01:19:22.675Z,10.18
2022-10-09T01:21:56.775Z,10.19
2022-10-09T01:24:38.712Z,10.18
2022-10-09T01:27:15.540Z,10.10
2022-10-09T01:30:04.797Z,10.09
2022-10-09T01:32:36.754Z,10.04
2022-10-09T01:35:06.096Z,10.07
2022-10-09T01:37:34.764Z,10.12
2022-10-09T01:40:04.538Z,9.91
2022-10-09T01:42:32.585Z,9.85
2022-10-09T01:44:59.767Z,9.94
2022-10-09T01:47:27.105Z,9.95
2022-10-09T01:50:26.376Z,9.96
2022-10-09T01:53:10.447Z,9.89
2022-10-09T01:56:07.439Z,9.86
2022-10-09T01:58:40.064Z,9.76
2022-10-09T02:01:17.229Z,9.74
2022-10-09T02:03:48.067Z,9.66
2022-10-09T02:06:16.735Z,9.61
2022-10-09T02:08:47.081Z,9.73
2022-10-09T02:11:15.300Z,9.73
2022-10-09T02:13:43.839Z,9.71
2022-10-09T02:16:37.547Z,9.64
2022-10-09T02:19:16.491Z,9.70
2022-10-09T02:21:51.341Z,9.73
2022-10-09T02:24:24.399Z,9.75
2022-10-09T02:26:54.218Z,9.80
2022-10-09T02:29:21.895Z,9.87
2022-10-09T02:31:49.098Z,9.86
2022-10-09T02:34:20.230Z,9.74
2022-10-09T02:36:48.268Z,9.84
2022-10-09T02:39:15.428Z,9.85
2022-10-09T02:41:42.405Z,9.79
2022-10-09T02:44:22.048Z,9.75
2022-10-09T02:46:49.289Z,9.73
2022-10-09T02:49:16.234Z,9.86
2022-10-09T02:51:43.230Z,9.84
2022-10-09T02:54:10.487Z,9.88
2022-10-09T02:56:39.071Z,9.86
2022-10-09T02:59:06.928Z,9.83
2022-10-09T03:01:33.889Z,9.81
2022-10-09T03:04:00.811Z,9.83
2022-10-09T03:06:30.559Z,9.91
2022-10-09T03:08:57.595Z,9.83
2022-10-09T03:11:25.592Z,9.78
2022-10-09T03:13:52.659Z,9.80
2022-10-09T03:16:25.091Z,9.81
2022-10-09T03:18:53.110Z,9.76
2022-10-09T03:21:25.608Z,9.68
2022-10-09T03:23:53.526Z,9.74
2022-10-09T03:26:23.348Z,9.74
2022-10-09T03:28:51.757Z,9.50
2022-10-09T03:34:08.316Z,9.58
2022-10-09T03:36:35.191Z,9.51
2022-10-09T03:39:02.087Z,9.48
2022-10-09T03:41:29.031Z,9.63
2022-10-09T03:43:55.875Z,9.71
2022-10-09T03:46:22.814Z,9.67
2022-10-09T03:48:49.780Z,9.68
2022-10-09T03:51:16.784Z,9.58
2022-10-09T03:53:43.679Z,9.56
2022-10-09T03:56:10.610Z,9.76
2022-10-09T03:58:37.457Z,9.58
2022-10-09T04:01:04.444Z,9.48
2022-10-09T04:03:31.636Z,9.60
2022-10-09T04:05:58.470Z,9.52
2022-10-09T04:08:25.420Z,9.62
2022-10-09T04:10:59.796Z,9.64
2022-10-09T04:13:27.132Z,9.59
2022-10-09T04:15:55.066Z,9.80
2022-10-09T04:18:22.552Z,9.74
2022-10-09T04:20:51.334Z,9.80
2022-10-09T04:23:19.074Z,9.68
2022-10-09T04:25:46.519Z,9.72
2022-10-09T04:28:14.084Z,9.64
2022-10-09T04:30:41.415Z,9.74
2022-10-09T04:33:12.767Z,9.80
2022-10-09T04:35:43.691Z,9.89
2022-10-09T04:38:11.134Z,9.89
2022-10-09T04:40:38.069Z,9.82
2022-10-09T04:43:04.979Z,9.90
2022-10-09T04:45:32.259Z,9.85
2022-10-09T04:47:59.396Z,9.90
2022-10-09T04:50:26.289Z,10.01
2022-10-09T04:52:59.025Z,10.04
2022-10-09T04:55:26.023Z,10.24
2022-10-09T04:57:52.928Z,10.27
2022-10-09T05:00:19.932Z,10.48
2022-10-09T05:02:47.169Z,10.45
2022-10-09T05:05:14.464Z,10.57
2022-10-09T05:07:41.370Z,10.60
2022-10-09T05:10:08.708Z,10.78
2022-10-09T05:12:35.622Z,10.61
2022-10-09T05:15:02.698Z,10.79
2022-10-09T05:17:30.078Z,10.79
2022-10-09T05:19:57.053Z,10.94
2022-10-09T05:22:24.119Z,11.10
2022-10-09T05:24:51.079Z,10.93
2022-10-09T05:27:17.992Z,10.92
2022-10-09T05:29:44.947Z,11.26
2022-10-09T05:32:11.909Z,11.31
2022-10-09T05:34:38.832Z,11.43
2022-10-09T05:37:05.744Z,11.44
2022-10-09T05:39:32.676Z,11.52
2022-10-09T05:41:59.720Z,11.52
2022-10-09T05:44:26.703Z,12.19
2022-10-09T05:46:53.823Z,12.60
2022-10-09T05:49:20.733Z,13.75
2022-10-09T05:51:47.712Z,14.33
2022-10-09T05:54:17.736Z,14.08
2022-10-09T05:56:45.437Z,13.89
2022-10-09T05:59:19.811Z,13.80
2022-10-09T06:01:49.841Z,13.68
2022-10-09T06:04:22.064Z,13.67
2022-10-09T06:06:50.316Z,13.98
2022-10-09T06:09:23.322Z,14.25
2022-10-09T06:11:51.113Z,14.56
2022-10-09T06:14:18.627Z,15.45
2022-10-09T06:16:45.951Z,15.70
2022-10-09T06:19:15.572Z,15.61
2022-10-09T06:21:43.411Z,15.10
2022-10-09T06:24:20.607Z,15.36
2022-10-09T06:26:49.211Z,15.11
2022-10-09T06:29:16.502Z,15.69
2022-10-09T06:31:43.444Z,15.33
2022-10-09T06:34:11.078Z,15.76
2022-10-09T06:36:38.112Z,15.91
2022-10-09T06:39:07.646Z,16.11
2022-10-09T06:41:35.274Z,16.05
2022-10-09T06:44:16.626Z,15.86
2022-10-09T06:46:45.177Z,16.39
2022-10-09T06:49:12.574Z,16.59
2022-10-09T06:51:39.694Z,16.84
2022-10-09T06:54:13.464Z,16.81
2022-10-09T06:56:40.723Z,16.70
2022-10-09T06:59:08.153Z,16.69
2022-10-09T07:01:35.405Z,17.33
2022-10-09T07:04:07.171Z,17.85
2022-10-09T07:06:38.125Z,17.71
2022-10-09T07:09:09.255Z,18.26
2022-10-09T07:11:49.280Z,18.40
2022-10-09T07:14:17.143Z,18.77
2022-10-09T07:16:46.630Z,18.91
2022-10-09T07:19:15.537Z,18.57
2022-10-09T07:21:44.704Z,18.11
2022-10-09T07:24:12.521Z,18.61
2022-10-09T07:26:42.362Z,19.03
2022-10-09T07:29:11.077Z,19.27
2022-10-09T07:31:38.145Z,19.59
2022-10-09T07:34:06.446Z,19.45
2022-10-09T07:36:33.567Z,19.39
2022-10-09T07:39:00.843Z,19.14
2022-10-09T07:41:29.322Z,18.97
2022-10-09T07:43:56.879Z,18.90
2022-10-09T07:46:29.623Z,19.58
2022-10-09T07:48:59.302Z,19.34
2022-10-09T07:51:29.294Z,19.08
2022-10-09T07:53:57.497Z,18.82
2022-10-09T07:56:30.431Z,19.25
2022-10-09T07:58:59.594Z,18.44
2022-10-09T08:01:30.371Z,19.73
2022-10-09T08:03:58.488Z,19.77
2022-10-09T08:06:25.709Z,20.42
2022-10-09T08:08:54.767Z,21.32
2022-10-09T08:11:23.814Z,21.17
2022-10-09T08:13:51.447Z,21.33
2022-10-09T08:16:20.540Z,20.94
2022-10-09T08:18:48.718Z,20.74
2022-10-09T08:21:18.561Z,20.75
2022-10-09T08:23:46.109Z,20.93
2022-10-09T08:26:18.537Z,20.75
2022-10-09T08:28:53.250Z,21.20
2022-10-09T08:31:20.910Z,20.84
2022-10-09T08:33:48.112Z,21.75
2022-10-09T08:36:17.706Z,22.35
2022-10-09T08:38:47.670Z,23.59
2022-10-09T08:41:33.101Z,25.05
2022-10-09T08:44:10.576Z,26.23
2022-10-09T08:46:57.759Z,26.33
2022-10-09T08:49:57.962Z,27.09
2022-10-09T08:52:49.979Z,27.19
2022-10-09T08:55:28.752Z,26.09
2022-10-09T08:57:57.408Z,28.14
2022-10-09T09:00:28.776Z,28.44
2022-10-09T09:03:41.826Z,29.08
2022-10-09T09:06:56.562Z,29.02
2022-10-09T09:09:52.699Z,28.92
2022-10-09T09:12:44.099Z,29.42
2022-10-09T09:15:20.098Z,28.22
2022-10-09T09:17:59.431Z,29.43
2022-10-09T09:20:42.822Z,28.24
2022-10-09T09:23:15.517Z,28.48
2022-10-09T09:25:45.862Z,29.02
2022-10-09T09:28:20.334Z,28.43
2022-10-09T09:30:55.901Z,28.60
2022-10-09T09:33:25.587Z,27.61
2022-10-09T09:36:20.184Z,27.59
2022-10-09T09:39:26.063Z,28.61
2022-10-09T09:41:36.236Z,28.29
2022-10-09T09:44:05.173Z,30.19
2022-10-09T09:46:32.564Z,27.24
2022-10-09T09:48:59.487Z,27.32
2022-10-09T09:51:31.093Z,28.20
2022-10-09T09:54:01.408Z,27.02
2022-10-09T09:57:10.441Z,26.56
2022-10-09T09:59:36.002Z,26.87
2022-10-09T10:02:13.620Z,27.15
2022-10-09T10:05:08.524Z,26.67
2022-10-09T10:07:38.337Z,25.78
2022-10-09T10:10:08.009Z,24.87
2022-10-09T10:12:41.424Z,24.83
2022-10-09T10:15:22.013Z,23.58
2022-10-09T10:17:55.029Z,23.35
2022-10-09T10:20:22.112Z,23.12
2022-10-09T10:22:55.439Z,22.16
2022-10-09T10:25:28.657Z,22.41
2022-10-09T10:28:06.108Z,21.53
2022-10-09T10:30:35.614Z,21.49
2022-10-09T10:33:17.058Z,21.88
2022-10-09T10:35:44.664Z,21.65
2022-10-09T10:39:00.775Z,21.35
2022-10-09T10:41:40.694Z,21.46
2022-10-09T10:44:16.920Z,21.25
2022-10-09T10:46:53.522Z,20.98
2022-10-09T10:49:22.156Z,21.00
2022-10-09T10:52:07.571Z,20.55
2022-10-09T10:54:42.978Z,20.77
2022-10-09T10:57:15.685Z,20.13
2022-10-09T11:00:01.002Z,20.54
2022-10-09T11:02:56.533Z,19.97
2022-10-09T11:05:43.642Z,19.75
2022-10-09T11:08:39.650Z,19.82
2022-10-09T11:11:29.460Z,19.92
2022-10-09T11:13:56.696Z,20.18
2022-10-09T11:16:37.886Z,20.06
2022-10-09T11:19:07.502Z,20.09
2022-10-09T11:22:08.969Z,19.81
2022-10-09T11:24:38.654Z,20.19
2022-10-09T11:27:30.684Z,20.19
2022-10-09T11:30:02.720Z,20.39
2022-10-09T11:32:45.418Z,20.40
2022-10-09T11:35:12.405Z,20.02
2022-10-09T11:37:42.216Z,19.40
2022-10-09T11:40:17.100Z,19.46
2022-10-09T11:42:54.252Z,19.08
2022-10-09T11:45:24.439Z,19.11
2022-10-09T11:48:16.051Z,18.95
2022-10-09T11:50:54.568Z,18.69
2022-10-09T11:53:25.022Z,18.85
2022-10-09T11:56:09.173Z,18.75
2022-10-09T11:58:36.206Z,18.64
2022-10-09T12:01:21.880Z,18.64
2022-10-09T12:04:00.887Z,18.50
2022-10-09T12:06:29.223Z,18.62
2022-10-09T12:09:00.206Z,18.60
2022-10-09T12:11:28.691Z,18.37
2022-10-09T12:13:58.904Z,18.47
2022-10-09T12:16:40.850Z,18.45
2022-10-09T12:19:25.360Z,18.39
2022-10-09T12:21:55.570Z,18.12
2022-10-09T12:24:26.127Z,18.27
2022-10-09T12:26:55.618Z,18.19
2022-10-09T12:29:31.540Z,18.13
2022-10-09T12:32:05.148Z,18.00
2022-10-09T12:34:37.275Z,18.07
2022-10-09T12:37:17.351Z,17.77
2022-10-09T12:39:45.717Z,17.90
2022-10-09T12:42:38.859Z,17.94
2022-10-09T12:45:06.479Z,17.93
2022-10-09T12:47:35.263Z,17.71
2022-10-09T12:50:19.613Z,17.71
2022-10-09T12:52:59.366Z,17.25
2022-10-09T12:55:26.401Z,17.29
2022-10-09T12:57:54.849Z,17.16
2022-10-09T13:00:21.921Z,16.85
2022-10-09T13:02:49.341Z,16.63
2022-10-09T13:05:17.077Z,16.24
2022-10-09T13:07:52.762Z,16.33
2022-10-09T13:10:23.019Z,16.21
2022-10-09T13:12:53.277Z,16.13
2022-10-09T13:15:37.121Z,15.88
2022-10-09T13:18:21.952Z,15.62
2022-10-09T13:21:23.043Z,15.62
2022-10-09T13:23:50.444Z,15.54
2022-10-09T13:26:24.893Z,15.41
2022-10-09T13:28:52.678Z,15.10
2022-10-09T13:31:20.739Z,15.12
2022-10-09T13:33:48.458Z,14.74
2022-10-09T13:36:17.649Z,14.57
2022-10-09T13:38:45.391Z,14.59
2022-10-09T13:41:17.071Z,14.43
2022-10-09T13:43:44.427Z,14.49
2022-10-09T13:46:11.413Z,14.36
2022-10-09T13:48:38.270Z,14.33
2022-10-09T13:51:06.520Z,14.27
2022-10-09T13:53:33.716Z,14.19
2022-10-09T13:56:01.343Z,14.20
2022-10-09T13:58:28.951Z,14.19
2022-10-09T14:00:58.733Z,14.29
2022-10-09T14:03:28.526Z,14.38
2022-10-09T14:06:00.036Z,14.36
2022-10-09T14:08:26.945Z,14.44
2022-10-09T14:10:54.221Z,14.46
2022-10-09T14:13:21.909Z,14.47
2022-10-09T14:15:49.087Z,14.50
2022-10-09T14:18:16.033Z,14.37
2022-10-09T14:20:42.912Z,14.28
2022-10-09T14:23:09.900Z,14.37
2022-10-09T14:25:37.441Z,14.33
2022-10-09T14:28:04.411Z,14.35
2022-10-09T14:30:32.041Z,14.22
2022-10-09T14:32:59.568Z,14.15
2022-10-09T14:35:26.548Z,14.11
2022-10-09T14:37:53.673Z,14.00
2022-10-09T14:40:20.584Z,13.97
2022-10-09T14:42:47.837Z,13.96
2022-10-09T14:45:14.903Z,13.93
2022-10-09T14:47:41.816Z,13.90
2022-10-09T14:50:09.332Z,13.90
2022-10-09T14:52:36.301Z,13.92
2022-10-09T14:55:03.290Z,13.91
2022-10-09T14:57:35.185Z,13.90
2022-10-09T15:00:04.520Z,13.89
2022-10-09T15:02:33.566Z,13.81
2022-10-09T15:05:00.519Z,13.77
2022-10-09T15:07:28.365Z,13.72
2022-10-09T15:09:56.980Z,13.64
2022-10-09T15:12:23.996Z,13.64
2022-10-09T15:14:50.931Z,13.66
2022-10-09T15:17:17.806Z,13.62
2022-10-09T15:19:44.698Z,13.59
2022-10-09T15:22:11.592Z,13.57
2022-10-09T15:24:38.652Z,13.47
2022-10-09T15:27:05.803Z,13.52
2022-10-09T15:29:32.783Z,13.49
2022-10-09T15:31:59.841Z,13.50
2022-10-09T15:34:26.970Z,13.51
2022-10-09T15:36:53.801Z,13.44
2022-10-09T15:39:20.796Z,13.39
2022-10-09T15:41:47.881Z,13.38
2022-10-09T15:44:17.857Z,13.44
2022-10-09T15:46:46.504Z,13.46
2022-10-09T15:49:13.918Z,13.43
2022-10-09T15:51:42.909Z,13.45
2022-10-09T15:54:11.921Z,13.43
2022-10-09T15:56:40.161Z,13.27
2022-10-09T15:59:09.357Z,13.16
2022-10-09T16:01:36.374Z,13.17
2022-10-09T16:04:03.339Z,13.20
2022-10-09T16:06:30.403Z,13.14
2022-10-09T16:08:58.366Z,13.09
2022-10-09T16:11:26.814Z,13.14
2022-10-09T16:13:54.741Z,12.98
2022-10-09T16:16:25.665Z,13.10
2022-10-09T16:18:53.572Z,13.15
2022-10-09T16:21:24.148Z,13.03
2022-10-09T16:23:55.823Z,12.94
2022-10-09T16:26:26.787Z,12.92
2022-10-09T16:28:54.003Z,13.05
2022-10-09T16:31:25.216Z,13.10
2022-10-09T16:33:52.604Z,13.05
2022-10-09T16:36:19.603Z,12.97
2022-10-09T16:38:47.321Z,13.02
2022-10-09T16:41:18.008Z,12.94
2022-10-09T16:43:47.111Z,12.99
2022-10-09T16:46:29.414Z,13.01
2022-10-09T16:48:57.814Z,13.05
2022-10-09T16:51:34.138Z,12.80
2022-10-09T16:54:03.293Z,12.87
2022-10-09T16:56:33.402Z,12.86
2022-10-09T16:59:03.722Z,12.87
2022-10-09T17:01:30.832Z,12.64
2022-10-09T17:03:58.960Z,12.79
2022-10-09T17:06:27.292Z,12.85
2022-10-09T17:08:56.310Z,12.81
2022-10-09T17:11:25.654Z,12.82
2022-10-09T17:13:56.762Z,12.83
2022-10-09T17:16:27.854Z,12.82
2022-10-09T17:18:55.297Z,12.84
2022-10-09T17:21:22.201Z,12.85
2022-10-09T17:23:53.704Z,12.90
2022-10-09T17:26:22.316Z,12.93
2022-10-09T17:28:49.493Z,12.92
2022-10-09T17:31:22.326Z,12.96
2022-10-09T17:33:52.874Z,12.86
2022-10-09T17:36:22.750Z,12.86
2022-10-09T17:38:51.058Z,12.75
2022-10-09T17:41:21.640Z,12.81
2022-10-09T17:43:48.520Z,12.85
2022-10-09T17:46:15.941Z,12.81
2022-10-09T17:48:46.447Z,12.76
2022-10-09T17:51:20.033Z,12.70
2022-10-09T17:53:48.253Z,12.75
2022-10-09T17:56:15.593Z,12.68
2022-10-09T17:58:44.382Z,12.56
2022-10-09T18:01:12.011Z,12.64
2022-10-09T18:03:38.948Z,12.63
2022-10-09T18:06:08.213Z,12.62
2022-10-09T18:08:35.412Z,12.48
2022-10-09T18:11:07.670Z,12.45
2022-10-09T18:13:37.014Z,12.31
2022-10-09T18:16:08.470Z,12.46
2022-10-09T18:18:35.680Z,12.49
2022-10-09T18:21:08.635Z,12.53
2022-10-09T18:23:36.278Z,12.36
2022-10-09T18:26:11.162Z,12.31
2022-10-09T18:28:38.889Z,12.37
2022-10-09T18:31:11.366Z,12.40
2022-10-09T18:33:38.734Z,12.44
2022-10-09T18:36:14.033Z,12.45
2022-10-09T18:38:40.961Z,12.44
2022-10-09T18:41:08.982Z,12.44
2022-10-09T18:43:36.612Z,12.41
2022-10-09T18:46:03.822Z,12.35
2022-10-09T18:48:33.748Z,12.39
2022-10-09T18:51:02.685Z,12.28
2022-10-09T18:53:31.428Z,12.43
2022-10-09T18:55:59.005Z,12.51
2022-10-09T18:58:26.164Z,12.43
2022-10-09T19:00:53.256Z,12.40
2022-10-09T19:03:20.259Z,12.35
2022-10-09T19:05:47.200Z,12.39
2022-10-09T19:08:14.244Z,12.30
2022-10-09T19:10:41.184Z,12.40
2022-10-09T19:13:08.078Z,12.46
2022-10-09T19:15:35.363Z,12.49
2022-10-09T19:18:02.353Z,12.52
2022-10-09T19:20:29.407Z,12.55
2022-10-09T19:22:56.440Z,12.55
2022-10-09T19:25:23.441Z,12.60
2022-10-09T19:27:50.772Z,12.57
2022-10-09T19:30:18.004Z,12.65
2022-10-09T19:32:45.963Z,12.63
2022-10-09T19:35:12.977Z,12.65
2022-10-09T19:37:39.955Z,12.65
2022-10-09T19:40:07.469Z,12.71
2022-10-09T19:42:34.484Z,12.74
2022-10-09T19:45:01.421Z,12.69
2022-10-09T19:47:29.995Z,12.69
2022-10-09T19:49:56.970Z,12.74
2022-10-09T19:52:23.893Z,12.81
2022-10-09T19:54:50.985Z,12.80
2022-10-09T19:57:17.987Z,12.78
2022-10-09T19:59:45.012Z,12.82
2022-10-09T20:02:11.944Z,12.77
2022-10-09T20:04:39.468Z,12.85
2022-10-09T20:07:11.695Z,12.84
2022-10-09T20:09:39.689Z,12.85
2022-10-09T20:12:08.141Z,12.85
2022-10-09T20:14:35.038Z,12.82
2022-10-09T20:17:01.927Z,12.88
2022-10-09T20:19:31.064Z,12.89
2022-10-09T20:21:58.472Z,12.85
2022-10-09T20:24:25.452Z,12.93
2022-10-09T20:26:53.647Z,12.94
2022-10-09T20:29:20.600Z,12.94
2022-10-09T20:31:48.937Z,12.92
2022-10-09T20:34:16.935Z,12.77
2022-10-09T20:36:43.988Z,12.74
2022-10-09T20:39:13.657Z,12.62
2022-10-09T20:41:42.531Z,12.64
2022-10-09T20:44:11.047Z,12.64
2022-10-09T20:46:39.665Z,12.60
2022-10-09T20:49:10.360Z,12.65
2022-10-09T20:51:38.946Z,12.66
2022-10-09T20:54:07.547Z,12.70
2022-10-09T20:56:35.016Z,12.62
2022-10-09T20:59:03.076Z,12.67
2022-10-09T21:01:30.192Z,12.63
2022-10-09T21:03:59.279Z,12.67
2022-10-09T21:06:27.120Z,12.65
2022-10-09T21:08:54.713Z,12.69
2022-10-09T21:11:22.257Z,12.70
2022-10-09T21:13:50.041Z,12.75
2022-10-09T21:16:23.499Z,12.79
2022-10-09T21:18:58.515Z,12.70
2022-10-09T22:06:02.191Z,12.20
2022-10-09T22:08:29.079Z,12.10
2022-10-09T22:10:56.033Z,12.23
2022-10-09T22:13:22.910Z,12.24
2022-10-09T22:15:51.379Z,12.16
2022-10-09T22:18:19.411Z,12.15
2022-10-09T22:20:49.727Z,12.18
2022-10-09T22:23:20.690Z,12.12
2022-10-09T22:26:05.735Z,12.11
2022-10-09T22:28:33.186Z,12.09
2022-10-09T22:31:02.265Z,12.02
2022-10-09T22:33:29.605Z,12.01
2022-10-09T22:36:22.232Z,11.98
2022-10-09T22:38:49.168Z,11.99
2022-10-09T22:41:19.412Z,12.00
2022-10-09T22:43:49.351Z,11.99
2022-10-09T22:46:25.254Z,11.95
2022-10-09T22:48:52.666Z,11.92
2022-10-09T22:51:21.778Z,11.92
2022-10-09T22:53:50.024Z,11.94
2022-10-09T22:56:20.289Z,11.87
2022-10-09T22:58:48.326Z,11.88
2022-10-09T23:01:25.283Z,11.88
2022-10-09T23:03:52.511Z,11.85
2022-10-09T23:06:20.768Z,11.90
2022-10-09T23:08:48.286Z,11.84
2022-10-09T23:11:16.750Z,11.86
2022-10-09T23:13:45.850Z,11.81
2022-10-09T23:16:15.335Z,11.80
2022-10-09T23:18:43.423Z,11.74
2022-10-09T23:21:14.015Z,11.75
2022-10-09T23:23:44.183Z,11.76
2022-10-09T23:26:14.449Z,11.78
2022-10-09T23:28:42.600Z,11.79
2022-10-09T23:31:12.647Z,11.81
2022-10-09T23:33:41.693Z,11.84
2022-10-09T23:36:11.245Z,11.86
2022-10-09T23:38:38.956Z,11.84
2022-10-09T23:41:08.996Z,11.90
2022-10-09T23:43:38.034Z,11.92
2022-10-09T23:46:06.966Z,11.93
2022-10-09T23:48:34.433Z,11.84
2022-10-09T23:51:01.592Z,11.87
2022-10-09T23:53:28.841Z,11.90
2022-10-09T23:55:55.715Z,11.89
2022-10-09T23:58:23.514Z,11.94
